sensor_id;sensor_type;location;lat;lon;timestamp;pressure;altitude;pressure_sealevel;temperature;humidity
77749;BME280;66938;52.084;5.228;2023-07-20T00:01:12;101563.0;;;17.43;79.63
77749;BME280;66938;52.084;5.228;2023-07-20T00:02:50;101567.0;;;17.41;80.22
77749;BME280;66938;52.084;5.228;2023-07-20T00:06:02;101568.0;;;17.45;80.16
77749;BME280;66938;52.084;5.228;2023-07-20T00:07:38;101564.0;;;17.43;79.61
77749;BME280;66938;52.084;5.228;2023-07-20T00:09:14;101568.0;;;17.25;80.02
77749;BME280;66938;52.084;5.228;2023-07-20T00:12:27;101565.0;;;17.09;81.28
77749;BME280;66938;52.084;5.228;2023-07-20T00:14:03;101565.0;;;17.27;80.41
77749;BME280;66938;52.084;5.228;2023-07-20T00:15:39;101566.0;;;17.22;80.48
77749;BME280;66938;52.084;5.228;2023-07-20T00:18:51;101569.0;;;17.21;80.8
77749;BME280;66938;52.084;5.228;2023-07-20T00:20:27;101567.0;;;17.27;80.47
77749;BME280;66938;52.084;5.228;2023-07-20T00:22:04;101569.0;;;17.22;80.56
77749;BME280;66938;52.084;5.228;2023-07-20T00:23:39;101564.0;;;17.18;80.88
77749;BME280;66938;52.084;5.228;2023-07-20T00:26:52;101567.0;;;17.2;81.05
77749;BME280;66938;52.084;5.228;2023-07-20T00:28:28;101570.0;;;17.13;81.19
77749;BME280;66938;52.084;5.228;2023-07-20T00:30:05;101566.0;;;17.2;81.03
77749;BME280;66938;52.084;5.228;2023-07-20T00:33:17;101565.0;;;17.09;81.74
77749;BME280;66938;52.084;5.228;2023-07-20T00:34:54;101568.0;;;17.18;81.16
77749;BME280;66938;52.084;5.228;2023-07-20T00:36:30;101567.0;;;17.11;81.11
77749;BME280;66938;52.084;5.228;2023-07-20T00:39:43;101561.0;;;17.09;80.77
77749;BME280;66938;52.084;5.228;2023-07-20T00:41:19;101565.0;;;17.07;80.41
77749;BME280;66938;52.084;5.228;2023-07-20T00:42:55;101568.0;;;17.02;80.37
77749;BME280;66938;52.084;5.228;2023-07-20T00:46:08;101569.0;;;17.0;80.64
77749;BME280;66938;52.084;5.228;2023-07-20T00:47:46;101566.0;;;16.98;80.59
77749;BME280;66938;52.084;5.228;2023-07-20T00:49:22;101562.0;;;16.95;80.72
77749;BME280;66938;52.084;5.228;2023-07-20T00:50:59;101563.0;;;17.02;80.77
77749;BME280;66938;52.084;5.228;2023-07-20T00:54:14;101560.0;;;16.95;80.75
77749;BME280;66938;52.084;5.228;2023-07-20T00:55:51;101564.0;;;17.0;80.77
77749;BME280;66938;52.084;5.228;2023-07-20T00:57:27;101564.0;;;16.89;80.58
77749;BME280;66938;52.084;5.228;2023-07-20T01:00:40;101562.0;;;16.97;80.47
77749;BME280;66938;52.084;5.228;2023-07-20T01:02:16;101564.0;;;16.9;81.0
77749;BME280;66938;52.084;5.228;2023-07-20T01:03:52;101565.0;;;16.86;81.11
77749;BME280;66938;52.084;5.228;2023-07-20T01:05:35;101565.0;;;16.81;81.11
77749;BME280;66938;52.084;5.228;2023-07-20T01:09:09;101565.0;;;16.72;81.08
77749;BME280;66938;52.084;5.228;2023-07-20T01:10:52;101565.0;;;16.66;80.67
77749;BME280;66938;52.084;5.228;2023-07-20T01:12:40;101561.0;;;16.65;80.3
77749;BME280;66938;52.084;5.228;2023-07-20T01:14:18;101560.0;;;16.53;80.49
77749;BME280;66938;52.084;5.228;2023-07-20T01:15:57;101566.0;;;16.48;80.53
77749;BME280;66938;52.084;5.228;2023-07-20T01:19:13;101565.0;;;16.52;80.31
77749;BME280;66938;52.084;5.228;2023-07-20T01:20:48;101565.0;;;16.52;79.95
77749;BME280;66938;52.084;5.228;2023-07-20T01:22:42;101561.0;;;16.48;79.78
77749;BME280;66938;52.084;5.228;2023-07-20T01:25:07;101565.0;;;16.36;80.16
77749;BME280;66938;52.084;5.228;2023-07-20T01:28:22;101565.0;;;16.25;80.41
77749;BME280;66938;52.084;5.228;2023-07-20T01:30:16;101568.0;;;16.18;80.74
77749;BME280;66938;52.084;5.228;2023-07-20T01:32:02;101576.0;;;16.13;80.83
77749;BME280;66938;52.084;5.228;2023-07-20T01:33:40;101572.0;;;16.2;80.58
77749;BME280;66938;52.084;5.228;2023-07-20T01:35:19;101578.0;;;16.15;80.77
77749;BME280;66938;52.084;5.228;2023-07-20T01:36:58;101577.0;;;16.14;80.73
77749;BME280;66938;52.084;5.228;2023-07-20T01:40:13;101580.0;;;16.16;80.55
77749;BME280;66938;52.084;5.228;2023-07-20T01:41:50;101580.0;;;16.11;80.62
77749;BME280;66938;52.084;5.228;2023-07-20T01:43:26;101578.0;;;16.06;80.81
77749;BME280;66938;52.084;5.228;2023-07-20T01:46:39;101583.0;;;16.02;81.19
77749;BME280;66938;52.084;5.228;2023-07-20T01:48:15;101576.0;;;15.99;81.19
77749;BME280;66938;52.084;5.228;2023-07-20T01:49:51;101570.0;;;15.94;81.27
77749;BME280;66938;52.084;5.228;2023-07-20T01:53:04;101574.0;;;15.89;81.33
77749;BME280;66938;52.084;5.228;2023-07-20T01:54:40;101578.0;;;15.83;81.69
77749;BME280;66938;52.084;5.228;2023-07-20T01:56:16;101580.0;;;15.79;81.81
77749;BME280;66938;52.084;5.228;2023-07-20T01:57:52;101580.0;;;15.79;81.83
77749;BME280;66938;52.084;5.228;2023-07-20T02:01:05;101581.0;;;15.83;81.97
77749;BME280;66938;52.084;5.228;2023-07-20T02:02:41;101580.0;;;15.77;83.26
77749;BME280;66938;52.084;5.228;2023-07-20T02:04:17;101582.0;;;15.78;83.43
77749;BME280;66938;52.084;5.228;2023-07-20T02:07:30;101583.0;;;15.69;83.23
77749;BME280;66938;52.084;5.228;2023-07-20T02:09:06;101583.0;;;15.62;84.08
77749;BME280;66938;52.084;5.228;2023-07-20T02:10:45;101580.0;;;15.7;83.55
77749;BME280;66938;52.084;5.228;2023-07-20T02:13:57;101583.0;;;15.64;84.38
77749;BME280;66938;52.084;5.228;2023-07-20T02:15:33;101580.0;;;15.66;83.69
77749;BME280;66938;52.084;5.228;2023-07-20T02:17:09;101577.0;;;15.63;83.8
77749;BME280;66938;52.084;5.228;2023-07-20T02:18:45;101578.0;;;15.66;82.96
77749;BME280;66938;52.084;5.228;2023-07-20T02:21:58;101580.0;;;15.63;82.87
77749;BME280;66938;52.084;5.228;2023-07-20T02:23:34;101581.0;;;15.57;83.23
77749;BME280;66938;52.084;5.228;2023-07-20T02:25:10;101582.0;;;15.62;83.31
77749;BME280;66938;52.084;5.228;2023-07-20T02:28:22;101583.0;;;15.58;82.94
77749;BME280;66938;52.084;5.228;2023-07-20T02:29:58;101581.0;;;15.47;84.06
77749;BME280;66938;52.084;5.228;2023-07-20T02:31:34;101582.0;;;15.47;84.57
77749;BME280;66938;52.084;5.228;2023-07-20T02:34:46;101580.0;;;15.57;83.8
77749;BME280;66938;52.084;5.228;2023-07-20T02:36:23;101580.0;;;15.59;82.98
77749;BME280;66938;52.084;5.228;2023-07-20T02:37:59;101580.0;;;15.62;82.71
77749;BME280;66938;52.084;5.228;2023-07-20T02:41:12;101584.0;;;15.6;82.44
77749;BME280;66938;52.084;5.228;2023-07-20T02:42:49;101588.0;;;15.59;82.27
77749;BME280;66938;52.084;5.228;2023-07-20T02:44:25;101585.0;;;15.54;82.4
77749;BME280;66938;52.084;5.228;2023-07-20T02:46:01;101590.0;;;15.53;82.27
77749;BME280;66938;52.084;5.228;2023-07-20T02:49:13;101589.0;;;15.5;82.4
77749;BME280;66938;52.084;5.228;2023-07-20T02:50:49;101589.0;;;15.5;82.28
77749;BME280;66938;52.084;5.228;2023-07-20T02:52:26;101593.0;;;15.44;82.54
77749;BME280;66938;52.084;5.228;2023-07-20T02:55:38;101592.0;;;15.5;82.32
77749;BME280;66938;52.084;5.228;2023-07-20T02:57:14;101599.0;;;15.51;82.18
77749;BME280;66938;52.084;5.228;2023-07-20T02:58:50;101597.0;;;15.49;82.35
77749;BME280;66938;52.084;5.228;2023-07-20T03:02:03;101597.0;;;15.52;82.2
77749;BME280;66938;52.084;5.228;2023-07-20T03:03:39;101602.0;;;15.45;82.37
77749;BME280;66938;52.084;5.228;2023-07-20T03:05:15;101606.0;;;15.5;82.21
77749;BME280;66938;52.084;5.228;2023-07-20T03:06:52;101603.0;;;15.45;82.32
77749;BME280;66938;52.084;5.228;2023-07-20T03:10:05;101609.0;;;15.42;82.44
77749;BME280;66938;52.084;5.228;2023-07-20T03:11:41;101614.0;;;15.39;82.46
77749;BME280;66938;52.084;5.228;2023-07-20T03:13:17;101610.0;;;15.38;82.53
77749;BME280;66938;52.084;5.228;2023-07-20T03:16:29;101616.0;;;15.37;82.45
77749;BME280;66938;52.084;5.228;2023-07-20T03:18:05;101619.0;;;15.39;82.4
77749;BME280;66938;52.084;5.228;2023-07-20T03:19:42;101618.0;;;15.42;82.11
77749;BME280;66938;52.084;5.228;2023-07-20T03:22:54;101619.0;;;15.4;82.09
77749;BME280;66938;52.084;5.228;2023-07-20T03:24:30;101626.0;;;15.34;82.34
77749;BME280;66938;52.084;5.228;2023-07-20T03:26:06;101623.0;;;15.34;82.25
77749;BME280;66938;52.084;5.228;2023-07-20T03:29:18;101618.0;;;15.31;82.24
77749;BME280;66938;52.084;5.228;2023-07-20T03:30:55;101619.0;;;15.25;82.51
77749;BME280;66938;52.084;5.228;2023-07-20T03:32:31;101617.0;;;15.31;82.29
77749;BME280;66938;52.084;5.228;2023-07-20T03:34:07;101617.0;;;15.3;82.32
77749;BME280;66938;52.084;5.228;2023-07-20T03:37:20;101616.0;;;15.29;82.51
77749;BME280;66938;52.084;5.228;2023-07-20T03:38:56;101620.0;;;15.22;82.96
77749;BME280;66938;52.084;5.228;2023-07-20T03:40:32;101618.0;;;15.23;82.89
77749;BME280;66938;52.084;5.228;2023-07-20T03:43:44;101626.0;;;15.23;82.71
77749;BME280;66938;52.084;5.228;2023-07-20T03:45:20;101626.0;;;15.26;82.64
77749;BME280;66938;52.084;5.228;2023-07-20T03:46:56;101624.0;;;15.23;82.67
77749;BME280;66938;52.084;5.228;2023-07-20T03:50:10;101624.0;;;15.25;82.59
77749;BME280;66938;52.084;5.228;2023-07-20T03:51:46;101622.0;;;15.23;82.6
77749;BME280;66938;52.084;5.228;2023-07-20T03:53:22;101624.0;;;15.25;82.49
77749;BME280;66938;52.084;5.228;2023-07-20T03:54:58;101624.0;;;15.27;82.41
77749;BME280;66938;52.084;5.228;2023-07-20T03:58:10;101628.0;;;15.27;82.31
77749;BME280;66938;52.084;5.228;2023-07-20T03:59:48;101630.0;;;15.22;82.43
77749;BME280;66938;52.084;5.228;2023-07-20T04:01:24;101627.0;;;15.2;82.53
77749;BME280;66938;52.084;5.228;2023-07-20T04:04:36;101630.0;;;15.25;82.36
77749;BME280;66938;52.084;5.228;2023-07-20T04:06:13;101632.0;;;15.37;81.91
77749;BME280;66938;52.084;5.228;2023-07-20T04:07:49;101633.0;;;15.29;81.91
77749;BME280;66938;52.084;5.228;2023-07-20T04:11:01;101636.0;;;15.25;82.02
77749;BME280;66938;52.084;5.228;2023-07-20T04:12:37;101638.0;;;15.2;82.08
77749;BME280;66938;52.084;5.228;2023-07-20T04:14:13;101639.0;;;15.11;82.45
77749;BME280;66938;52.084;5.228;2023-07-20T04:15:49;101642.0;;;15.06;82.86
77749;BME280;66938;52.084;5.228;2023-07-20T04:19:01;101644.0;;;15.16;82.66
77749;BME280;66938;52.084;5.228;2023-07-20T04:20:37;101641.0;;;15.23;82.48
77749;BME280;66938;52.084;5.228;2023-07-20T04:22:13;101641.0;;;15.27;82.51
77749;BME280;66938;52.084;5.228;2023-07-20T04:25:26;101644.0;;;15.16;82.49
77749;BME280;66938;52.084;5.228;2023-07-20T04:27:02;101645.0;;;15.13;82.5
77749;BME280;66938;52.084;5.228;2023-07-20T04:28:38;101647.0;;;15.14;82.67
77749;BME280;66938;52.084;5.228;2023-07-20T04:31:53;101647.0;;;15.16;82.73
77749;BME280;66938;52.084;5.228;2023-07-20T04:33:29;101655.0;;;15.09;83.43
77749;BME280;66938;52.084;5.228;2023-07-20T04:35:06;101649.0;;;15.13;83.17
77749;BME280;66938;52.084;5.228;2023-07-20T04:38:20;101655.0;;;15.06;83.43
77749;BME280;66938;52.084;5.228;2023-07-20T04:39:56;101656.0;;;15.03;83.37
77749;BME280;66938;52.084;5.228;2023-07-20T04:41:32;101655.0;;;15.08;83.3
77749;BME280;66938;52.084;5.228;2023-07-20T04:43:08;101653.0;;;15.05;83.28
77749;BME280;66938;52.084;5.228;2023-07-20T04:46:20;101656.0;;;15.04;83.47
77749;BME280;66938;52.084;5.228;2023-07-20T04:47:56;101658.0;;;15.12;83.21
77749;BME280;66938;52.084;5.228;2023-07-20T04:49:32;101656.0;;;15.15;83.05
77749;BME280;66938;52.084;5.228;2023-07-20T04:52:45;101657.0;;;15.12;83.12
77749;BME280;66938;52.084;5.228;2023-07-20T04:54:21;101660.0;;;15.15;83.1
77749;BME280;66938;52.084;5.228;2023-07-20T04:55:57;101662.0;;;15.2;82.95
77749;BME280;66938;52.084;5.228;2023-07-20T04:59:09;101666.0;;;15.26;82.76
77749;BME280;66938;52.084;5.228;2023-07-20T05:00:45;101665.0;;;15.24;83.06
77749;BME280;66938;52.084;5.228;2023-07-20T05:02:21;101666.0;;;15.23;83.36
77749;BME280;66938;52.084;5.228;2023-07-20T05:03:57;101666.0;;;15.26;83.53
77749;BME280;66938;52.084;5.228;2023-07-20T05:07:10;101664.0;;;15.29;83.57
77749;BME280;66938;52.084;5.228;2023-07-20T05:08:46;101666.0;;;15.36;83.49
77749;BME280;66938;52.084;5.228;2023-07-20T05:10:23;101663.0;;;15.38;83.54
77749;BME280;66938;52.084;5.228;2023-07-20T05:13:36;101659.0;;;15.39;83.59
77749;BME280;66938;52.084;5.228;2023-07-20T05:15:12;101662.0;;;15.47;83.42
77749;BME280;66938;52.084;5.228;2023-07-20T05:16:49;101661.0;;;15.46;83.57
77749;BME280;66938;52.084;5.228;2023-07-20T05:20:01;101667.0;;;15.48;83.68
77749;BME280;66938;52.084;5.228;2023-07-20T05:21:38;101665.0;;;15.5;83.63
77749;BME280;66938;52.084;5.228;2023-07-20T05:23:14;101660.0;;;15.62;83.4
77749;BME280;66938;52.084;5.228;2023-07-20T05:26:26;101663.0;;;15.65;83.32
77749;BME280;66938;52.084;5.228;2023-07-20T05:28:03;101663.0;;;15.68;83.27
77749;BME280;66938;52.084;5.228;2023-07-20T05:29:44;101662.0;;;15.71;83.3
77749;BME280;66938;52.084;5.228;2023-07-20T05:31:20;101658.0;;;15.73;83.27
77749;BME280;66938;52.084;5.228;2023-07-20T05:34:32;101655.0;;;15.78;83.12
77749;BME280;66938;52.084;5.228;2023-07-20T05:36:08;101655.0;;;15.78;83.11
77749;BME280;66938;52.084;5.228;2023-07-20T05:37:45;101655.0;;;15.87;83.27
77749;BME280;66938;52.084;5.228;2023-07-20T05:41:00;101661.0;;;15.93;83.11
77749;BME280;66938;52.084;5.228;2023-07-20T05:42:36;101659.0;;;15.9;82.81
77749;BME280;66938;52.084;5.228;2023-07-20T05:44:13;101658.0;;;15.9;82.73
77749;BME280;66938;52.084;5.228;2023-07-20T05:45:49;101661.0;;;15.94;82.55
77749;BME280;66938;52.084;5.228;2023-07-20T05:49:01;101659.0;;;16.02;82.36
77749;BME280;66938;52.084;5.228;2023-07-20T05:50:42;101655.0;;;16.07;81.81
77749;BME280;66938;52.084;5.228;2023-07-20T05:52:18;101652.0;;;15.96;81.78
77749;BME280;66938;52.084;5.228;2023-07-20T05:55:31;101656.0;;;16.03;81.72
77749;BME280;66938;52.084;5.228;2023-07-20T05:57:07;101658.0;;;16.03;81.53
77749;BME280;66938;52.084;5.228;2023-07-20T05:58:44;101662.0;;;16.07;80.95
77749;BME280;66938;52.084;5.228;2023-07-20T06:01:56;101662.0;;;16.11;80.8
77749;BME280;66938;52.084;5.228;2023-07-20T06:03:32;101666.0;;;16.06;80.55
77749;BME280;66938;52.084;5.228;2023-07-20T06:05:09;101662.0;;;16.09;80.59
77749;BME280;66938;52.084;5.228;2023-07-20T06:06:45;101668.0;;;16.11;80.55
77749;BME280;66938;52.084;5.228;2023-07-20T06:09:57;101672.0;;;16.15;80.19
77749;BME280;66938;52.084;5.228;2023-07-20T06:11:33;101669.0;;;16.2;80.24
77749;BME280;66938;52.084;5.228;2023-07-20T06:13:10;101671.0;;;16.25;79.45
77749;BME280;66938;52.084;5.228;2023-07-20T06:16:22;101674.0;;;16.29;78.98
77749;BME280;66938;52.084;5.228;2023-07-20T06:17:58;101677.0;;;16.3;78.86
77749;BME280;66938;52.084;5.228;2023-07-20T06:19:34;101672.0;;;16.29;78.72
77749;BME280;66938;52.084;5.228;2023-07-20T06:22:47;101676.0;;;16.31;78.36
77749;BME280;66938;52.084;5.228;2023-07-20T06:24:23;101670.0;;;16.32;77.86
77749;BME280;66938;52.084;5.228;2023-07-20T06:25:59;101668.0;;;16.43;77.99
77749;BME280;66938;52.084;5.228;2023-07-20T06:29:12;101675.0;;;16.46;77.56
77749;BME280;66938;52.084;5.228;2023-07-20T06:30:48;101676.0;;;16.45;78.3
77749;BME280;66938;52.084;5.228;2023-07-20T06:32:24;101675.0;;;16.5;78.02
77749;BME280;66938;52.084;5.228;2023-07-20T06:34:00;101681.0;;;16.57;78.11
77749;BME280;66938;52.084;5.228;2023-07-20T06:37:12;101688.0;;;16.66;77.59
77749;BME280;66938;52.084;5.228;2023-07-20T06:38:49;101689.0;;;16.7;76.58
77749;BME280;66938;52.084;5.228;2023-07-20T06:40:24;101688.0;;;16.68;76.61
77749;BME280;66938;52.084;5.228;2023-07-20T06:43:37;101693.0;;;16.7;75.84
77749;BME280;66938;52.084;5.228;2023-07-20T06:45:13;101691.0;;;16.81;75.8
77749;BME280;66938;52.084;5.228;2023-07-20T06:46:49;101691.0;;;16.86;74.78
77749;BME280;66938;52.084;5.228;2023-07-20T06:50:01;101693.0;;;16.86;73.97
77749;BME280;66938;52.084;5.228;2023-07-20T06:51:37;101689.0;;;16.86;74.2
77749;BME280;66938;52.084;5.228;2023-07-20T06:53:13;101696.0;;;16.93;74.69
77749;BME280;66938;52.084;5.228;2023-07-20T06:54:50;101698.0;;;16.95;74.02
77749;BME280;66938;52.084;5.228;2023-07-20T06:58:02;101702.0;;;17.03;73.97
77749;BME280;66938;52.084;5.228;2023-07-20T06:59:37;101697.0;;;17.14;74.42
77749;BME280;66938;52.084;5.228;2023-07-20T07:01:14;101699.0;;;17.16;73.91
77749;BME280;66938;52.084;5.228;2023-07-20T07:04:26;101702.0;;;17.21;73.45
77749;BME280;66938;52.084;5.228;2023-07-20T07:06:02;101695.0;;;17.27;73.11
77749;BME280;66938;52.084;5.228;2023-07-20T07:07:39;101695.0;;;17.25;72.67
77749;BME280;66938;52.084;5.228;2023-07-20T07:10:52;101696.0;;;17.29;72.77
77749;BME280;66938;52.084;5.228;2023-07-20T07:12:28;101698.0;;;17.39;72.11
77749;BME280;66938;52.084;5.228;2023-07-20T07:14:04;101703.0;;;17.43;72.28
77749;BME280;66938;52.084;5.228;2023-07-20T07:17:16;101700.0;;;17.46;72.49
77749;BME280;66938;52.084;5.228;2023-07-20T07:18:52;101703.0;;;17.45;71.94
77749;BME280;66938;52.084;5.228;2023-07-20T07:20:28;101706.0;;;17.53;69.8
77749;BME280;66938;52.084;5.228;2023-07-20T07:22:05;101706.0;;;17.53;67.39
77749;BME280;66938;52.084;5.228;2023-07-20T07:25:17;101706.0;;;17.48;68.45
77749;BME280;66938;52.084;5.228;2023-07-20T07:26:53;101706.0;;;17.45;69.58
77749;BME280;66938;52.084;5.228;2023-07-20T07:28:29;101706.0;;;17.45;70.28
77749;BME280;66938;52.084;5.228;2023-07-20T07:31:43;101710.0;;;17.41;71.55
77749;BME280;66938;52.084;5.228;2023-07-20T07:33:19;101708.0;;;17.5;70.74
77749;BME280;66938;52.084;5.228;2023-07-20T07:34:56;101710.0;;;17.56;68.74
77749;BME280;66938;52.084;5.228;2023-07-20T07:38:09;101712.0;;;17.66;68.47
77749;BME280;66938;52.084;5.228;2023-07-20T07:39:45;101707.0;;;17.7;68.05
77749;BME280;66938;52.084;5.228;2023-07-20T07:41:21;101705.0;;;17.77;67.33
77749;BME280;66938;52.084;5.228;2023-07-20T07:42:57;101708.0;;;17.84;67.52
77749;BME280;66938;52.084;5.228;2023-07-20T07:46:09;101709.0;;;17.87;67.78
77749;BME280;66938;52.084;5.228;2023-07-20T07:47:45;101708.0;;;17.91;67.17
77749;BME280;66938;52.084;5.228;2023-07-20T07:49:21;101714.0;;;17.93;67.41
77749;BME280;66938;52.084;5.228;2023-07-20T07:52:34;101716.0;;;17.97;67.98
77749;BME280;66938;52.084;5.228;2023-07-20T07:54:10;101713.0;;;18.03;68.08
77749;BME280;66938;52.084;5.228;2023-07-20T07:55:47;101714.0;;;18.11;68.02
77749;BME280;66938;52.084;5.228;2023-07-20T07:58:59;101710.0;;;18.12;64.06
77749;BME280;66938;52.084;5.228;2023-07-20T08:00:35;101707.0;;;18.18;65.08
77749;BME280;66938;52.084;5.228;2023-07-20T08:02:11;101709.0;;;18.2;65.12
77749;BME280;66938;52.084;5.228;2023-07-20T08:05:24;101707.0;;;18.23;64.45
77749;BME280;66938;52.084;5.228;2023-07-20T08:07:00;101706.0;;;18.31;63.35
77749;BME280;66938;52.084;5.228;2023-07-20T08:08:38;101706.0;;;18.23;60.63
77749;BME280;66938;52.084;5.228;2023-07-20T08:10:14;101705.0;;;18.27;60.33
77749;BME280;66938;52.084;5.228;2023-07-20T08:13:26;101703.0;;;18.39;61.12
77749;BME280;66938;52.084;5.228;2023-07-20T08:15:02;101705.0;;;18.39;60.56
77749;BME280;66938;52.084;5.228;2023-07-20T08:16:38;101706.0;;;18.52;61.06
77749;BME280;66938;52.084;5.228;2023-07-20T08:19:51;101701.0;;;18.57;59.59
77749;BME280;66938;52.084;5.228;2023-07-20T08:21:27;101700.0;;;18.59;58.46
77749;BME280;66938;52.084;5.228;2023-07-20T08:23:03;101697.0;;;18.61;56.73
77749;BME280;66938;52.084;5.228;2023-07-20T08:26:16;101705.0;;;18.68;58.95
77749;BME280;66938;52.084;5.228;2023-07-20T08:27:52;101709.0;;;18.64;57.91
77749;BME280;66938;52.084;5.228;2023-07-20T08:29:28;101705.0;;;18.73;58.71
77749;BME280;66938;52.084;5.228;2023-07-20T08:31:05;101711.0;;;18.68;59.71
77749;BME280;66938;52.084;5.228;2023-07-20T08:34:19;101708.0;;;18.77;56.26
77749;BME280;66938;52.084;5.228;2023-07-20T08:35:55;101712.0;;;18.77;52.85
77749;BME280;66938;52.084;5.228;2023-07-20T08:37:31;101720.0;;;18.82;51.37
77749;BME280;66938;52.084;5.228;2023-07-20T08:40:44;101716.0;;;18.87;48.25
77749;BME280;66938;52.084;5.228;2023-07-20T08:42:22;101713.0;;;18.98;51.07
77749;BME280;66938;52.084;5.228;2023-07-20T08:44:00;101724.0;;;19.04;52.3
77749;BME280;66938;52.084;5.228;2023-07-20T08:47:16;101716.0;;;19.03;49.36
77749;BME280;66938;52.084;5.228;2023-07-20T08:48:53;101717.0;;;18.95;48.04
77749;BME280;66938;52.084;5.228;2023-07-20T08:50:31;101712.0;;;19.07;49.53
77749;BME280;66938;52.084;5.228;2023-07-20T08:52:08;101709.0;;;19.16;49.04
77749;BME280;66938;52.084;5.228;2023-07-20T08:55:24;101708.0;;;19.25;50.64
77749;BME280;66938;52.084;5.228;2023-07-20T08:57:02;101711.0;;;19.3;52.32
77749;BME280;66938;52.084;5.228;2023-07-20T08:58:42;101712.0;;;19.21;47.55
77749;BME280;66938;52.084;5.228;2023-07-20T09:01:58;101710.0;;;19.27;49.8
77749;BME280;66938;52.084;5.228;2023-07-20T09:03:35;101712.0;;;19.37;53.06
77749;BME280;66938;52.084;5.228;2023-07-20T09:05:11;101709.0;;;19.41;51.48
77749;BME280;66938;52.084;5.228;2023-07-20T09:06:48;101708.0;;;19.36;50.21
77749;BME280;66938;52.084;5.228;2023-07-20T09:10:02;101706.0;;;19.47;50.46
77749;BME280;66938;52.084;5.228;2023-07-20T09:11:38;101706.0;;;19.59;51.86
77749;BME280;66938;52.084;5.228;2023-07-20T09:13:16;101708.0;;;19.68;51.98
77749;BME280;66938;52.084;5.228;2023-07-20T09:16:28;101709.0;;;19.64;49.45
77749;BME280;66938;52.084;5.228;2023-07-20T09:18:04;101705.0;;;19.54;46.79
77749;BME280;66938;52.084;5.228;2023-07-20T09:19:45;101705.0;;;19.68;47.94
77749;BME280;66938;52.084;5.228;2023-07-20T09:21:22;101708.0;;;19.7;49.75
77749;BME280;66938;52.084;5.228;2023-07-20T09:24:34;101710.0;;;19.77;50.21
77749;BME280;66938;52.084;5.228;2023-07-20T09:26:11;101712.0;;;19.79;50.16
77749;BME280;66938;52.084;5.228;2023-07-20T09:27:49;101709.0;;;19.8;49.92
77749;BME280;66938;52.084;5.228;2023-07-20T09:31:15;101712.0;;;19.77;52.53
77749;BME280;66938;52.084;5.228;2023-07-20T09:32:52;101709.0;;;19.84;49.34
77749;BME280;66938;52.084;5.228;2023-07-20T09:34:28;101707.0;;;19.91;48.79
77749;BME280;66938;52.084;5.228;2023-07-20T09:36:05;101703.0;;;19.97;50.03
77749;BME280;66938;52.084;5.228;2023-07-20T09:39:22;101705.0;;;20.04;49.73
77749;BME280;66938;52.084;5.228;2023-07-20T09:40:58;101703.0;;;20.11;48.97
77749;BME280;66938;52.084;5.228;2023-07-20T09:42:36;101699.0;;;20.09;47.45
77749;BME280;66938;52.084;5.228;2023-07-20T09:45:57;101699.0;;;20.25;48.26
77749;BME280;66938;52.084;5.228;2023-07-20T09:47:36;101703.0;;;20.2;47.37
77749;BME280;66938;52.084;5.228;2023-07-20T09:49:13;101694.0;;;20.3;48.26
77749;BME280;66938;52.084;5.228;2023-07-20T09:50:50;101699.0;;;20.45;48.01
77749;BME280;66938;52.084;5.228;2023-07-20T09:54:04;101698.0;;;20.41;47.02
77749;BME280;66938;52.084;5.228;2023-07-20T09:55:41;101698.0;;;20.54;48.32
77749;BME280;66938;52.084;5.228;2023-07-20T09:57:18;101694.0;;;20.51;51.21
77749;BME280;66938;52.084;5.228;2023-07-20T09:58:57;101685.0;;;20.55;47.97
77749;BME280;66938;52.084;5.228;2023-07-20T10:02:19;101688.0;;;20.55;48.32
77749;BME280;66938;52.084;5.228;2023-07-20T10:03:58;101686.0;;;20.5;46.8
77749;BME280;66938;52.084;5.228;2023-07-20T10:05:41;101685.0;;;20.5;46.58
77749;BME280;66938;52.084;5.228;2023-07-20T10:07:22;101683.0;;;20.58;47.22
77749;BME280;66938;52.084;5.228;2023-07-20T10:10:40;101681.0;;;20.71;48.06
77749;BME280;66938;52.084;5.228;2023-07-20T10:12:20;101686.0;;;20.82;49.47
77749;BME280;66938;52.084;5.228;2023-07-20T10:13:59;101686.0;;;20.85;47.61
77749;BME280;66938;52.084;5.228;2023-07-20T10:15:43;101684.0;;;20.87;48.37
77749;BME280;66938;52.084;5.228;2023-07-20T10:19:05;101680.0;;;20.99;47.5
77749;BME280;66938;52.084;5.228;2023-07-20T10:20:44;101676.0;;;21.08;46.12
77749;BME280;66938;52.084;5.228;2023-07-20T10:22:25;101678.0;;;20.97;44.77
77749;BME280;66938;52.084;5.228;2023-07-20T10:24:07;101673.0;;;21.11;44.97
77749;BME280;66938;52.084;5.228;2023-07-20T10:27:23;101669.0;;;21.04;47.42
77749;BME280;66938;52.084;5.228;2023-07-20T10:29:00;101674.0;;;20.98;47.19
77749;BME280;66938;52.084;5.228;2023-07-20T10:30:37;101672.0;;;21.07;46.84
77749;BME280;66938;52.084;5.228;2023-07-20T10:33:50;101672.0;;;21.17;49.33
77749;BME280;66938;52.084;5.228;2023-07-20T10:35:27;101671.0;;;21.17;46.41
77749;BME280;66938;52.084;5.228;2023-07-20T10:37:04;101668.0;;;21.26;47.96
77749;BME280;66938;52.084;5.228;2023-07-20T10:38:41;101671.0;;;21.4;48.32
77749;BME280;66938;52.084;5.228;2023-07-20T10:42:14;101669.0;;;21.31;47.15
77749;BME280;66938;52.084;5.228;2023-07-20T10:43:50;101676.0;;;21.32;45.75
77749;BME280;66938;52.084;5.228;2023-07-20T10:45:33;101672.0;;;21.42;44.33
77749;BME280;66938;52.084;5.228;2023-07-20T10:47:28;101664.0;;;21.48;45.89
77749;BME280;66938;52.084;5.228;2023-07-20T10:49:20;101664.0;;;21.49;44.57
77749;BME280;66938;52.084;5.228;2023-07-20T10:53:04;101667.0;;;21.6;46.19
77749;BME280;66938;52.084;5.228;2023-07-20T10:54:48;101660.0;;;21.61;47.51
77749;BME280;66938;52.084;5.228;2023-07-20T10:56:27;101660.0;;;21.75;48.56
77749;BME280;66938;52.084;5.228;2023-07-20T10:58:07;101657.0;;;21.88;44.86
77749;BME280;66938;52.084;5.228;2023-07-20T10:59:46;101657.0;;;22.0;45.01
77749;BME280;66938;52.084;5.228;2023-07-20T11:03:04;101656.0;;;22.09;46.49
77749;BME280;66938;52.084;5.228;2023-07-20T11:04:41;101657.0;;;22.15;46.07
77749;BME280;66938;52.084;5.228;2023-07-20T11:06:33;101655.0;;;22.19;48.5